Time;durP1;ratioP1;P1;durP2;ratioP2;P2;SDS_P1;SDS_P2;PMS_P1;PMS_P2;Temp;Humidity;BMP_temperature;BMP_pressure;BME280_temperature;BME280_humidity;BME280_pressure;Samples;Min_cycle;Max_cycle;Signal;HPM_P1;HPM_P2
2022/04/18 00:01:14;;;;;;;11.57;8.07;;;;;;;8.67;50.50;101937.53;4982162;28;20386;-80
2022/04/18 00:03:40;;;;;;;11.35;8.13;;;;;;;8.63;50.12;101934.06;4977822;28;20038;-80
2022/04/18 00:06:05;;;;;;;12.65;8.23;;;;;;;8.58;51.96;101936.66;4978925;28;20031;-80
2022/04/18 00:08:30;;;;;;;11.75;8.35;;;;;;;8.55;52.13;101936.66;4981944;28;20035;-80
2022/04/18 00:10:55;;;;;;;11.18;7.60;;;;;;;8.52;51.60;101940.97;4984712;28;20026;-80
2022/04/18 00:13:21;;;;;;;12.07;7.97;;;;;;;8.45;52.19;101934.91;4977267;28;20039;-79
2022/04/18 00:15:46;;;;;;;12.80;8.25;;;;;;;8.41;52.59;101938.34;4977609;28;20101;-80
2022/04/18 00:18:11;;;;;;;11.68;7.82;;;;;;;8.38;51.81;101927.97;4976533;28;20041;-79
2022/04/18 00:20:36;;;;;;;10.60;7.53;;;;;;;8.36;51.53;101930.56;4982402;28;20082;-79
2022/04/18 00:23:02;;;;;;;12.30;7.38;;;;;;;8.31;51.50;101927.09;4977790;28;20512;-80
2022/04/18 00:25:27;;;;;;;9.98;6.95;;;;;;;8.28;49.87;101933.16;4980125;28;20033;-80
2022/04/18 00:27:53;;;;;;;11.48;6.57;;;;;;;8.27;51.54;101920.19;4979898;28;20034;-80
2022/04/18 00:30:18;;;;;;;10.27;6.90;;;;;;;8.26;50.59;101916.72;4978541;28;20022;-80
2022/04/18 00:32:44;;;;;;;11.57;6.40;;;;;;;8.26;49.59;101921.91;4977635;28;20034;-80
2022/04/18 00:35:09;;;;;;;9.40;6.30;;;;;;;8.28;49.16;101929.72;4978274;28;20039;-80
2022/04/18 00:37:36;;;;;;;8.63;5.85;;;;;;;8.26;49.42;101924.50;4979515;28;20467;-79
2022/04/18 00:40:03;;;;;;;10.10;5.78;;;;;;;8.26;48.57;101911.53;4961394;28;20034;-80
2022/04/18 00:42:28;;;;;;;8.85;5.47;;;;;;;8.27;48.68;101915.84;4981334;28;20026;-80
2022/04/18 00:44:54;;;;;;;9.30;6.10;;;;;;;8.28;50.18;101917.59;4969417;28;20045;-79
2022/04/18 00:47:19;;;;;;;7.70;5.30;;;;;;;8.27;49.81;101915.00;4979036;28;20407;-79
2022/04/18 00:49:44;;;;;;;10.15;5.50;;;;;;;8.27;48.77;101918.44;4978543;28;20034;-79
2022/04/18 00:52:10;;;;;;;7.65;5.20;;;;;;;8.24;49.27;101913.25;4958909;28;20447;-80
2022/04/18 00:54:35;;;;;;;7.90;5.20;;;;;;;8.21;51.89;101908.06;4981754;28;20060;-79
2022/04/18 00:57:02;;;;;;;7.65;5.22;;;;;;;8.18;50.35;101913.28;4977008;28;20037;-79
2022/04/18 00:59:31;;;;;;;7.03;4.82;;;;;;;8.18;48.36;101908.09;4980220;28;20031;-80
2022/04/18 01:01:57;;;;;;;7.95;5.03;;;;;;;8.15;50.61;101905.47;4981925;28;20027;-80
2022/04/18 01:04:23;;;;;;;7.40;5.53;;;;;;;8.07;51.11;101904.59;4979186;28;20465;-80
2022/04/18 01:06:48;;;;;;;7.70;5.60;;;;;;;8.04;52.05;101906.31;4980078;28;20537;-80
2022/04/18 01:09:14;;;;;;;7.65;5.07;;;;;;;8.01;49.92;101908.03;4981652;28;20085;-80
2022/04/18 01:11:40;;;;;;;9.40;5.20;;;;;;;7.99;50.71;101904.56;4979249;28;20502;-79
2022/04/18 01:14:06;;;;;;;8.18;5.15;;;;;;;7.94;51.12;101914.09;4977700;28;20466;-80
2022/04/18 01:16:31;;;;;;;8.77;5.72;;;;;;;7.86;50.02;101903.66;4977304;28;20029;-79
2022/04/18 01:18:57;;;;;;;12.27;5.57;;;;;;;7.80;50.44;101906.25;4978805;28;20027;-79
2022/04/18 01:21:23;;;;;;;11.18;5.75;;;;;;;7.75;51.54;101907.09;4980679;28;20594;-80
2022/04/18 01:23:48;;;;;;;8.18;5.35;;;;;;;7.71;51.95;101900.19;4976687;28;20081;-79
2022/04/18 01:29:03;;;;;;;6.95;4.93;;;;;;;7.66;52.75;101906.22;4977383;28;20517;-79
2022/04/18 01:31:32;;;;;;;7.28;4.78;;;;;;;7.61;52.21;101903.63;4984274;28;20057;-79
2022/04/18 01:33:58;;;;;;;8.05;5.15;;;;;;;7.57;52.72;101896.69;4975706;28;20118;-79
2022/04/18 01:36:25;;;;;;;6.40;4.53;;;;;;;7.56;52.22;101903.59;4980673;28;20027;-79
2022/04/18 01:38:50;;;;;;;7.47;4.53;;;;;;;7.55;51.89;101904.47;4976518;28;20022;-79
2022/04/18 01:41:17;;;;;;;7.50;4.25;;;;;;;7.53;53.02;101900.09;4981087;28;20383;-79
2022/04/18 01:43:43;;;;;;;7.95;4.40;;;;;;;7.50;52.11;101900.97;4979029;28;20030;-79
2022/04/18 01:46:08;;;;;;;6.85;4.50;;;;;;;7.50;50.93;101906.16;4980883;28;20082;-79
2022/04/18 01:48:33;;;;;;;6.60;4.53;;;;;;;7.50;51.85;101895.78;4979174;28;20072;-79
2022/04/18 01:50:58;;;;;;;7.30;4.60;;;;;;;7.49;51.08;101896.66;4960340;28;20037;-79
2022/04/18 01:53:25;;;;;;;7.13;4.47;;;;;;;7.43;51.12;101900.09;4977350;28;20022;-79
2022/04/18 01:55:51;;;;;;;8.45;4.32;;;;;;;7.39;50.82;101898.34;4962617;28;20129;-79
2022/04/18 01:58:16;;;;;;;7.13;4.45;;;;;;;7.33;52.22;101898.31;4988156;28;20233;-79
2022/04/18 02:00:41;;;;;;;7.38;4.35;;;;;;;7.30;52.52;101898.31;4985104;28;20026;-79
2022/04/18 02:03:07;;;;;;;6.82;4.45;;;;;;;7.28;53.34;101898.28;4982841;28;20380;-79
2022/04/18 02:05:32;;;;;;;6.95;3.88;;;;;;;7.28;53.00;101889.66;4986582;28;20360;-79
2022/04/18 02:07:57;;;;;;;7.15;3.90;;;;;;;7.28;51.86;101894.84;4976497;28;20022;-79
2022/04/18 02:10:23;;;;;;;6.03;4.38;;;;;;;7.23;52.96;101886.19;4958071;28;20039;-79
2022/04/18 02:12:48;;;;;;;5.47;3.85;;;;;;;7.17;52.29;101887.00;4974228;28;20532;-79
2022/04/18 02:15:15;;;;;;;6.20;3.67;;;;;;;7.13;53.85;101882.66;4979976;28;20034;-79
2022/04/18 02:17:40;;;;;;;5.25;3.72;;;;;;;7.14;51.26;101882.69;4960835;28;20487;-79
2022/04/18 02:20:06;;;;;;;6.72;4.15;;;;;;;7.11;50.06;101887.84;4978920;28;20104;-79
2022/04/18 02:22:32;;;;;;;7.35;4.00;;;;;;;7.08;54.19;101886.97;4975954;28;20039;-79
2022/04/18 02:25:00;;;;;;;5.43;4.07;;;;;;;7.05;53.31;101884.38;4974125;28;20023;-79
2022/04/18 02:27:26;;;;;;;5.05;3.75;;;;;;;7.03;54.10;101884.34;4982610;28;20041;-79
2022/04/18 02:29:51;;;;;;;5.63;3.92;;;;;;;7.01;54.54;101880.88;4979242;28;20026;-79
2022/04/18 02:35:01;;;;;;;6.03;4.20;;;;;;;6.96;51.42;101887.75;4981792;28;20501;-79
2022/04/18 02:37:26;;;;;;;6.35;4.20;;;;;;;6.91;53.53;101879.09;4982684;28;20015;-79
2022/04/18 02:39:54;;;;;;;6.68;4.43;;;;;;;6.87;54.44;101883.41;4981091;28;20549;-79
2022/04/18 02:42:19;;;;;;;6.28;4.18;;;;;;;6.83;54.34;101882.50;4958385;28;20027;-79
2022/04/18 02:44:46;;;;;;;7.68;4.00;;;;;;;6.77;54.59;101876.41;4981523;28;20038;-79
2022/04/18 02:47:12;;;;;;;5.63;4.15;;;;;;;6.70;54.44;101866.91;4976259;28;20022;-79
2022/04/18 02:49:37;;;;;;;5.63;4.00;;;;;;;6.66;54.74;101868.59;4989489;28;20030;-79
2022/04/18 02:52:04;;;;;;;7.05;4.30;;;;;;;6.60;55.98;101868.56;4977171;28;20030;-79
2022/04/18 02:54:29;;;;;;;6.35;3.92;;;;;;;6.58;53.59;101865.09;4975683;28;20027;-79
2022/04/18 02:56:54;;;;;;;6.45;4.20;;;;;;;6.55;53.18;101862.47;4982948;28;20034;-79
2022/04/18 02:59:20;;;;;;;7.95;4.32;;;;;;;6.48;54.39;101854.69;4977897;28;20506;-79
2022/04/18 03:01:45;;;;;;;6.63;4.05;;;;;;;6.45;56.10;101865.00;4985252;28;20026;-79
2022/04/18 03:04:10;;;;;;;5.70;3.97;;;;;;;6.43;55.42;101858.06;4973518;28;20026;-79
2022/04/18 03:06:35;;;;;;;6.90;4.20;;;;;;;6.36;55.36;101860.63;4980789;28;20026;-79
2022/04/18 03:09:01;;;;;;;6.90;4.80;;;;;;;6.28;56.00;101851.94;4974330;28;20462;-79
2022/04/18 03:11:26;;;;;;;6.10;3.90;;;;;;;6.22;57.28;101852.75;4975565;28;20041;-79
2022/04/18 03:13:51;;;;;;;5.50;3.95;;;;;;;6.16;57.34;101857.00;4980913;28;20050;-79
2022/04/18 03:16:18;;;;;;;5.25;3.70;;;;;;;6.11;56.16;101854.38;4984779;28;20540;-79
2022/04/18 03:18:44;;;;;;;6.88;4.40;;;;;;;6.02;56.73;101857.75;4979319;28;20533;-79
2022/04/18 03:21:10;;;;;;;5.82;4.03;;;;;;;5.98;56.75;101852.50;4975128;28;20030;-79
2022/04/18 03:23:35;;;;;;;5.00;3.75;;;;;;;5.91;57.04;101846.38;4973134;28;20538;-79
2022/04/18 03:26:00;;;;;;;5.15;3.70;;;;;;;5.89;56.95;101848.97;4975026;28;20118;-79
2022/04/18 03:28:26;;;;;;;5.90;4.20;;;;;;;5.88;56.93;101856.72;4974953;28;20049;-79
2022/04/18 03:30:52;;;;;;;4.68;3.70;;;;;;;5.81;56.99;101847.16;4974353;28;20122;-79
2022/04/18 03:33:18;;;;;;;6.38;4.20;;;;;;;5.78;58.61;101851.44;4987806;28;20496;-79
2022/04/18 03:39:50;;;;;;;5.22;3.83;;;;;;;5.75;57.26;101847.97;4972713;28;20057;-79
2022/04/18 03:41:16;;;;;;;5.05;3.85;;;;;;;5.70;57.58;101841.88;4975243;28;20098;-79
2022/04/18 03:43:41;;;;;;;6.30;3.70;;;;;;;5.69;57.93;101847.88;4973926;28;20110;-79
2022/04/18 03:46:06;;;;;;;5.60;3.67;;;;;;;5.68;58.51;101840.97;4977038;28;20026;-79
2022/04/18 03:48:32;;;;;;;6.22;3.83;;;;;;;5.67;57.50;101850.47;4975946;28;20026;-79
2022/04/18 03:50:57;;;;;;;5.05;3.63;;;;;;;5.67;57.81;101849.56;4974447;28;20025;-79
2022/04/18 03:53:23;;;;;;;6.22;3.85;;;;;;;5.65;57.78;101848.69;4979358;28;20022;-79
2022/04/18 03:55:48;;;;;;;6.20;4.15;;;;;;;5.63;57.21;101846.09;4980001;28;20031;-79
2022/04/18 03:58:13;;;;;;;8.25;4.15;;;;;;;5.60;57.00;101844.38;4980081;28;20089;-79
2022/04/18 04:00:42;;;;;;;8.30;4.22;;;;;;;5.61;57.33;101846.09;4978624;28;20030;-79
2022/04/18 04:03:07;;;;;;;6.03;3.80;;;;;;;5.60;58.46;101841.78;4966551;28;20038;-79
2022/04/18 04:05:32;;;;;;;5.68;3.72;;;;;;;5.60;58.09;101839.19;4975096;28;20038;-79
2022/04/18 04:07:58;;;;;;;7.07;3.70;;;;;;;5.59;57.38;101845.22;4978461;28;20092;-79
2022/04/18 04:10:23;;;;;;;5.50;4.00;;;;;;;5.59;58.25;101845.22;4985498;28;20370;-79
2022/04/18 04:12:48;;;;;;;5.57;3.35;;;;;;;5.60;59.67;101843.47;4976557;28;20034;-79
2022/04/18 04:15:14;;;;;;;5.00;3.72;;;;;;;5.57;59.26;101838.28;4978042;28;20037;-79
2022/04/18 04:17:40;;;;;;;5.18;3.60;;;;;;;5.53;58.38;101839.97;4978617;28;20390;-79
2022/04/18 04:20:06;;;;;;;6.07;3.85;;;;;;;5.51;58.45;101840.81;4972832;28;20023;-79
2022/04/18 04:22:31;;;;;;;6.57;3.58;;;;;;;5.51;57.92;101841.66;4978672;28;20097;-79
2022/04/18 04:24:57;;;;;;;6.45;3.95;;;;;;;5.50;56.26;101832.19;4983632;28;20397;-79
2022/04/18 04:27:23;;;;;;;5.40;3.85;;;;;;;5.51;56.31;101838.22;4977947;28;20355;-79
2022/04/18 04:29:48;;;;;;;7.55;3.97;;;;;;;5.49;56.01;101833.03;4978420;28;20057;-79
2022/04/18 04:32:13;;;;;;;9.02;3.88;;;;;;;5.49;57.50;101835.63;4982675;28;20045;-79
2022/04/18 04:34:40;;;;;;;5.35;4.10;;;;;;;5.48;57.92;101836.47;4979343;28;20417;-79
2022/04/18 04:37:06;;;;;;;6.50;4.07;;;;;;;5.45;58.42;101836.44;4980739;28;20023;-79
2022/04/18 04:39:31;;;;;;;5.30;3.67;;;;;;;5.43;57.85;101836.41;4979832;28;20081;-79
2022/04/18 04:41:57;;;;;;;7.47;3.85;;;;;;;5.44;59.26;101834.72;4979051;28;20074;-79
2022/04/18 04:44:22;;;;;;;7.72;3.90;;;;;;;5.41;58.37;101839.84;4982541;28;20368;-79
2022/04/18 04:46:47;;;;;;;5.05;3.70;;;;;;;5.39;57.56;101837.22;4978907;28;20523;-79
2022/04/18 04:49:12;;;;;;;5.40;3.70;;;;;;;5.36;58.37;101836.31;4980149;28;20038;-79
2022/04/18 04:51:39;;;;;;;5.70;4.03;;;;;;;5.37;58.58;101832.91;4988514;28;20031;-79
2022/04/18 04:54:04;;;;;;;5.93;3.80;;;;;;;5.38;58.14;101839.78;4982135;28;20062;-79
2022/04/18 04:56:30;;;;;;;7.03;4.20;;;;;;;5.35;58.46;101839.75;4985499;28;20061;-79
2022/04/18 04:58:55;;;;;;;5.13;3.55;;;;;;;5.35;58.22;101839.75;4990608;28;20040;-79
2022/04/18 05:01:21;;;;;;;7.88;3.65;;;;;;;5.35;58.78;101840.63;4982065;28;20022;-79
2022/04/18 05:03:47;;;;;;;6.70;4.00;;;;;;;5.36;57.39;101841.50;4984789;28;20026;-79
2022/04/18 05:06:14;;;;;;;7.15;3.88;;;;;;;5.38;58.47;101842.38;4979375;28;20471;-79
2022/04/18 05:08:39;;;;;;;5.57;3.50;;;;;;;5.41;58.58;101845.00;4991572;28;20477;-79
2022/04/18 05:11:05;;;;;;;5.82;3.78;;;;;;;5.41;57.38;101845.84;4976311;28;20118;-79
2022/04/18 05:13:30;;;;;;;7.35;4.22;;;;;;;5.44;58.17;101845.91;4982549;28;20390;-78
2022/04/18 05:15:55;;;;;;;5.88;3.95;;;;;;;5.49;58.34;101842.50;4980890;28;20022;-79
2022/04/18 05:18:21;;;;;;;7.90;4.25;;;;;;;5.51;58.98;101849.41;4984920;28;20368;-78
2022/04/18 05:20:46;;;;;;;7.28;4.10;;;;;;;5.57;57.51;101851.19;4977556;28;20026;-79
2022/04/18 05:23:12;;;;;;;5.55;3.88;;;;;;;5.58;58.02;101851.22;4980584;28;20066;-79
2022/04/18 05:25:37;;;;;;;6.72;4.32;;;;;;;5.60;56.06;101854.69;4974775;28;20031;-79
2022/04/18 05:28:03;;;;;;;14.93;4.70;;;;;;;5.60;56.45;101866.72;4980468;28;20382;-78
2022/04/18 05:30:29;;;;;;;6.97;4.10;;;;;;;5.57;57.03;101866.69;4978553;28;20040;-79
2022/04/18 05:32:54;;;;;;;12.18;5.72;;;;;;;5.58;58.28;101864.13;4976917;28;20026;-79
2022/04/18 05:35:20;;;;;;;9.20;4.47;;;;;;;5.62;56.98;101865.91;4976039;28;20041;-79
2022/04/18 05:37:46;;;;;;;8.80;4.22;;;;;;;5.68;56.94;101869.38;4959704;28;20351;-79
2022/04/18 05:40:11;;;;;;;8.18;4.35;;;;;;;5.79;58.55;101870.38;4979318;28;20089;-79
2022/04/18 05:42:37;;;;;;;10.68;4.68;;;;;;;5.85;59.68;101852.34;4976527;28;20041;-79
2022/04/18 05:45:08;;;;;;;10.77;4.32;;;;;;;5.93;59.21;101863.66;4976103;28;20034;-78
2022/04/18 05:47:33;;;;;;;10.55;4.45;;;;;;;5.99;59.02;101857.66;4948130;28;20037;-79
2022/04/18 05:49:59;;;;;;;10.75;4.38;;;;;;;6.08;58.66;101859.50;4974975;28;20022;-79
2022/04/18 05:52:24;;;;;;;6.90;4.40;;;;;;;6.17;57.12;101857.00;4980457;28;20707;-79
2022/04/18 05:54:49;;;;;;;10.50;4.18;;;;;;;6.27;57.37;101859.69;4975349;28;20030;-79
2022/04/18 05:57:14;;;;;;;6.57;4.47;;;;;;;6.37;56.72;101852.00;4974442;28;20027;-79
2022/04/18 05:59:40;;;;;;;5.90;4.40;;;;;;;6.50;56.15;101849.50;4974719;28;20478;-79
2022/04/18 06:02:05;;;;;;;6.47;4.43;;;;;;;6.62;55.60;101847.00;4980034;28;20050;-79
2022/04/18 06:04:30;;;;;;;6.55;3.95;;;;;;;6.74;55.26;101842.81;4974995;28;20031;-79
2022/04/18 06:06:56;;;;;;;5.32;4.05;;;;;;;6.86;54.64;101842.88;4978471;28;20037;-79
2022/04/18 06:09:21;;;;;;;7.45;4.30;;;;;;;6.98;55.25;101839.50;4977346;28;20038;-79
2022/04/18 06:11:46;;;;;;;10.05;4.47;;;;;;;7.08;55.70;101841.25;4979007;28;20034;-79
2022/04/18 06:14:11;;;;;;;5.63;4.05;;;;;;;7.18;55.67;101846.47;4976256;28;20090;-79
2022/04/18 06:16:37;;;;;;;6.43;4.13;;;;;;;7.28;54.94;101837.91;4976143;28;20113;-79
2022/04/18 06:19:02;;;;;;;6.10;4.22;;;;;;;7.39;54.69;101848.28;4980341;28;20030;-79
2022/04/18 06:21:27;;;;;;;7.75;4.03;;;;;;;7.46;55.81;101837.09;4977425;28;20046;-79
2022/04/18 06:23:53;;;;;;;6.63;4.18;;;;;;;7.58;56.49;101846.63;4979452;28;20550;-79
2022/04/18 06:26:18;;;;;;;6.28;4.25;;;;;;;7.66;57.80;101839.75;4977262;28;20071;-78
2022/04/18 06:28:43;;;;;;;4.68;3.72;;;;;;;7.75;55.32;101850.13;4978925;28;20040;-79
2022/04/18 06:31:08;;;;;;;4.95;3.33;;;;;;;7.83;51.69;101857.06;4978681;28;20490;-78
2022/04/18 06:33:34;;;;;;;7.40;3.10;;;;;;;7.93;50.84;101855.34;4977657;28;20022;-79
2022/04/18 06:36:01;;;;;;;5.32;3.20;;;;;;;8.01;50.19;101862.28;4976506;28;20038;-79
2022/04/18 06:38:28;;;;;;;5.25;3.30;;;;;;;8.11;49.52;101862.28;4979264;28;20087;-78
2022/04/18 06:40:54;;;;;;;6.22;3.13;;;;;;;8.21;50.12;101869.19;4964002;28;20481;-78
2022/04/18 06:43:20;;;;;;;5.35;3.15;;;;;;;8.31;49.03;101872.66;4976953;28;20099;-79
2022/04/18 06:45:45;;;;;;;4.50;3.25;;;;;;;8.40;49.94;101871.78;4978901;28;20077;-79
2022/04/18 06:48:10;;;;;;;7.30;3.22;;;;;;;8.48;49.74;101875.28;4980217;28;20022;-79
2022/04/18 06:50:36;;;;;;;7.20;3.40;;;;;;;8.54;51.59;101862.28;4962492;28;20371;-78
2022/04/18 06:53:01;;;;;;;6.55;3.28;;;;;;;8.61;51.30;101861.44;4978448;28;20026;-78
2022/04/18 06:55:26;;;;;;;7.10;3.10;;;;;;;8.68;51.47;101859.69;4980369;28;20026;-79
2022/04/18 06:57:51;;;;;;;5.55;3.03;;;;;;;8.78;52.13;101865.72;4974956;28;20053;-78
2022/04/18 07:00:17;;;;;;;5.18;3.20;;;;;;;8.85;49.70;101857.09;4981795;28;20080;-79
2022/04/18 07:02:50;;;;;;;5.82;3.05;;;;;;;8.94;50.01;101854.47;4982039;28;20066;-80
2022/04/18 07:05:15;;;;;;;6.05;3.47;;;;;;;9.06;51.87;101852.69;4981334;28;20033;-79
2022/04/18 07:07:42;;;;;;;5.78;3.35;;;;;;;9.17;50.75;101853.53;4965381;28;20026;-79
2022/04/18 07:10:08;;;;;;;5.05;3.00;;;;;;;9.27;49.87;101857.81;4969312;28;20022;-79
2022/04/18 07:12:33;;;;;;;4.45;3.10;;;;;;;9.37;50.45;101850.84;4983778;28;20034;-79
2022/04/18 07:14:59;;;;;;;6.15;3.22;;;;;;;9.48;48.22;101845.59;4983318;28;20552;-79
2022/04/18 07:17:24;;;;;;;4.88;3.22;;;;;;;9.60;49.10;101851.59;4980846;28;20038;-79
2022/04/18 07:19:50;;;;;;;7.68;3.45;;;;;;;9.69;49.66;101844.63;4981270;28;20026;-79
2022/04/18 07:22:15;;;;;;;3.95;2.80;;;;;;;9.78;49.33;101848.03;4984005;28;20454;-79
2022/04/18 07:24:40;;;;;;;4.03;2.88;;;;;;;9.86;50.51;101849.72;4983119;28;20129;-79
2022/04/18 07:27:05;;;;;;;5.10;2.78;;;;;;;9.96;48.38;101841.84;4981346;28;20033;-79
2022/04/18 07:29:31;;;;;;;7.13;3.20;;;;;;;10.07;49.19;101837.47;4985134;28;20108;-79
2022/04/18 07:31:56;;;;;;;5.55;3.20;;;;;;;10.18;49.12;101842.53;4983199;28;20572;-79
2022/04/18 07:34:21;;;;;;;4.40;2.95;;;;;;;10.27;48.22;101849.41;4966021;28;20034;-79
2022/04/18 07:36:47;;;;;;;4.38;2.75;;;;;;;10.36;47.96;101849.34;4983796;28;20058;-80
2022/04/18 07:39:13;;;;;;;4.60;3.05;;;;;;;10.46;47.84;101847.56;4981425;28;20486;-79
2022/04/18 07:41:38;;;;;;;5.57;3.20;;;;;;;10.56;47.69;101843.16;4982062;28;20034;-79
2022/04/18 07:44:04;;;;;;;5.47;3.13;;;;;;;10.63;47.86;101843.06;4980120;28;20058;-79
2022/04/18 07:46:30;;;;;;;5.25;2.78;;;;;;;10.72;46.42;101847.31;4979080;28;20033;-79
2022/04/18 07:48:56;;;;;;;4.28;2.78;;;;;;;10.80;47.64;101834.22;4982651;28;20034;-79
2022/04/18 07:51:39;;;;;;;2.92;2.33;;;;;;;10.88;46.22;101837.59;4982747;28;20031;-77
2022/04/18 07:54:06;;;;;;;4.88;2.72;;;;;;;10.96;45.39;101834.03;4963021;28;20031;-78
2022/04/18 07:56:33;;;;;;;4.95;2.70;;;;;;;11.03;46.18;101839.16;4982715;28;20470;-77
2022/04/18 07:58:58;;;;;;;4.82;2.70;;;;;;;11.10;46.68;101837.34;4981591;28;20058;-77
2022/04/18 08:01:24;;;;;;;4.28;2.47;;;;;;;11.17;47.39;101832.94;4965694;28;20056;-77
2022/04/18 08:03:50;;;;;;;5.35;2.53;;;;;;;11.24;45.17;101831.97;4985205;28;20050;-78
2022/04/18 08:06:16;;;;;;;4.90;2.45;;;;;;;11.32;41.57;101831.88;4986055;28;21451;-78
2022/04/18 08:08:41;;;;;;;3.78;2.03;;;;;;;11.39;40.96;101828.31;4987922;28;20033;-78
2022/04/18 08:11:15;;;;;;;4.03;2.33;;;;;;;11.48;41.18;101827.31;4988759;28;20128;-78
2022/04/18 08:13:41;;;;;;;4.63;2.40;;;;;;;11.59;46.49;101828.03;4965431;28;20030;-78
2022/04/18 08:16:07;;;;;;;3.70;2.30;;;;;;;11.69;42.29;101831.38;4984568;28;20436;-78
2022/04/18 08:18:36;;;;;;;6.18;2.15;;;;;;;11.78;42.92;101830.38;4984444;28;20046;-79
2022/04/18 08:21:02;;;;;;;6.40;3.00;;;;;;;11.88;40.04;101826.75;4968400;28;20429;-78
2022/04/18 08:23:27;;;;;;;4.13;2.33;;;;;;;11.96;41.35;101824.88;4987780;28;20052;-78
2022/04/18 08:25:52;;;;;;;6.35;2.65;;;;;;;12.05;42.50;101829.09;4967128;28;20364;-78
2022/04/18 08:28:18;;;;;;;6.40;3.00;;;;;;;12.19;42.65;101826.28;4984606;28;20057;-78
2022/04/18 08:30:43;;;;;;;4.57;2.83;;;;;;;12.33;43.17;101825.19;4987936;28;20030;-79
2022/04/18 08:33:08;;;;;;;3.58;2.40;;;;;;;12.45;42.09;101822.38;4985430;28;20038;-79
2022/04/18 08:35:34;;;;;;;5.30;2.70;;;;;;;12.55;43.55;101813.47;4984332;28;20112;-79
2022/04/18 08:38:00;;;;;;;3.55;2.50;;;;;;;12.63;41.18;101820.31;4982614;28;20030;-78
2022/04/18 08:40:26;;;;;;;4.43;2.53;;;;;;;12.70;42.70;101817.56;4982317;28;20022;-78
2022/04/18 08:42:55;;;;;;;5.72;2.60;;;;;;;12.78;40.58;101824.38;4983517;28;20030;-78
2022/04/18 08:45:24;;;;;;;5.20;2.45;;;;;;;12.82;38.24;101824.28;4967244;28;20036;-78
2022/04/18 08:53:26;;;;;;;4.03;2.40;;;;;;;13.08;38.46;101816.81;4987231;28;20066;-78
2022/04/18 08:55:51;;;;;;;4.90;2.50;;;;;;;13.14;37.97;101814.09;4987202;28;20451;-77
2022/04/18 08:58:16;;;;;;;4.07;2.53;;;;;;;13.18;38.50;101819.22;4970119;28;20037;-78
2022/04/18 09:00:41;;;;;;;3.53;2.50;;;;;;;13.26;38.56;101818.19;4969510;28;20650;-79
2022/04/18 09:03:07;;;;;;;4.70;2.63;;;;;;;13.33;38.06;101811.94;4988190;28;20033;-78
2022/04/18 09:05:36;;;;;;;4.57;2.70;;;;;;;13.38;37.60;101810.09;4985277;28;20057;-79
2022/04/18 09:08:05;;;;;;;4.93;2.70;;;;;;;13.43;38.67;101818.72;4986744;28;20386;-79
2022/04/18 09:10:31;;;;;;;4.55;2.35;;;;;;;13.51;37.89;101822.00;4984163;28;20033;-79
2022/04/18 09:13:11;;;;;;;3.78;2.53;;;;;;;13.59;38.38;101807.94;4984559;28;20031;-79
2022/04/18 09:15:46;;;;;;;4.80;2.53;;;;;;;13.65;37.76;101813.03;4984037;28;20037;-79
2022/04/18 09:18:19;;;;;;;4.80;2.65;;;;;;;13.73;39.36;101811.06;4984991;28;20037;-79
2022/04/18 09:20:48;;;;;;;4.35;2.70;;;;;;;13.83;38.45;101811.72;4984972;28;20040;-79
2022/04/18 09:23:20;;;;;;;3.00;2.10;;;;;;;13.93;40.15;101807.97;4985003;28;20452;-79
2022/04/18 09:25:46;;;;;;;3.60;2.40;;;;;;;13.99;37.98;101812.22;4987381;28;20023;-79
2022/04/18 09:28:11;;;;;;;13.85;2.70;;;;;;;14.06;38.01;101815.53;4987062;28;20034;-79
2022/04/18 09:30:37;;;;;;;3.53;2.40;;;;;;;14.11;39.22;101808.41;4987251;28;20125;-79
2022/04/18 09:33:07;;;;;;;3.83;2.38;;;;;;;14.20;35.42;101804.72;4984775;28;20038;-79
2022/04/18 09:35:33;;;;;;;3.83;2.60;;;;;;;14.25;34.21;101808.06;4985614;28;20039;-79
2022/04/18 09:38:08;;;;;;;3.78;2.58;;;;;;;14.33;36.49;101800.91;4987684;28;20033;-79
2022/04/18 09:40:36;;;;;;;4.65;2.47;;;;;;;14.39;34.00;101805.94;4967790;28;20462;-79
2022/04/18 09:43:01;;;;;;;5.28;2.45;;;;;;;14.44;39.16;101800.59;4984242;28;20037;-79
2022/04/18 09:45:27;;;;;;;3.92;2.65;;;;;;;14.49;34.10;101797.88;4984455;28;20373;-80
2022/04/18 09:47:58;;;;;;;3.70;2.13;;;;;;;14.55;35.52;101795.06;4985836;28;20389;-79
2022/04/18 09:50:59;;;;;;;4.65;2.22;;;;;;;14.62;33.65;101795.75;4966422;28;20034;-79
2022/04/18 09:53:22;;;;;;;4.53;2.70;;;;;;;14.69;34.14;101798.19;4984838;28;20053;-80
2022/04/18 09:55:50;;;;;;;3.73;2.40;;;;;;;14.76;34.93;101803.28;4987571;28;20026;-79
2022/04/18 09:58:16;;;;;;;3.83;2.25;;;;;;;14.82;31.56;101788.25;4967103;28;20405;-80
2022/04/18 10:00:41;;;;;;;4.05;2.45;;;;;;;14.91;34.34;101787.13;4985712;28;20047;-79
2022/04/18 10:03:08;;;;;;;5.45;2.88;;;;;;;14.98;30.81;101772.94;4983609;28;20029;-80
2022/04/18 10:05:34;;;;;;;3.63;2.10;;;;;;;15.06;33.81;101779.72;4983062;28;20477;-80
2022/04/18 10:08:03;;;;;;;3.55;2.53;;;;;;;15.10;33.12;101776.09;4985643;28;20042;-79
2022/04/18 10:10:31;;;;;;;4.80;2.63;;;;;;;15.15;33.08;101776.81;4963919;28;20034;-80
2022/04/18 10:12:57;;;;;;;3.70;2.53;;;;;;;15.20;32.90;101767.03;4985513;28;20177;-80
2022/04/18 10:15:23;;;;;;;4.07;2.60;;;;;;;15.25;31.59;101775.63;4987552;28;20121;-79
2022/04/18 10:17:49;;;;;;;3.58;2.30;;;;;;;15.30;32.20;101773.75;4982051;28;20449;-80
2022/04/18 10:20:32;;;;;;;3.58;2.33;;;;;;;15.36;32.71;101766.59;4983022;28;20034;-80
2022/04/18 10:23:15;;;;;;;4.40;2.22;;;;;;;15.44;31.77;101769.81;4984310;28;20106;-79
2022/04/18 10:25:43;;;;;;;3.33;2.25;;;;;;;15.46;30.83;101763.63;4982387;28;20069;-80
2022/04/18 10:28:17;;;;;;;3.90;2.33;;;;;;;15.48;31.60;101758.34;4984622;28;20157;-80
2022/04/18 10:30:55;;;;;;;3.80;2.38;;;;;;;15.48;31.96;101760.97;4982664;28;20537;-79
2022/04/18 10:33:22;;;;;;;3.88;2.45;;;;;;;15.47;30.98;101751.38;4984478;28;20077;-80
2022/04/18 10:36:00;;;;;;;2.97;2.10;;;;;;;15.51;30.48;101754.75;4984406;28;20034;-79
2022/04/18 10:38:26;;;;;;;3.03;2.03;;;;;;;15.57;33.52;101758.03;4985270;28;20042;-80
2022/04/18 10:41:14;;;;;;;5.55;2.72;;;;;;;15.66;32.75;101746.38;4987141;28;20035;-79
2022/04/18 10:43:53;;;;;;;5.80;2.38;;;;;;;15.75;32.99;101737.34;4988220;28;20093;-80
2022/04/18 10:46:19;;;;;;;3.50;2.10;;;;;;;15.85;33.42;101748.41;4987041;28;20077;-80
2022/04/18 10:48:54;;;;;;;3.28;2.25;;;;;;;15.95;33.62;101749.00;4988704;28;20030;-80
2022/04/18 10:51:37;;;;;;;3.70;2.40;;;;;;;16.01;31.99;101743.53;4987768;28;20030;-80
2022/04/18 10:54:30;;;;;;;4.05;2.22;;;;;;;16.06;32.53;101744.22;4964729;28;20034;-80
2022/04/18 10:57:01;;;;;;;3.40;2.40;;;;;;;16.10;33.25;101743.22;4984865;28;20022;-80
2022/04/18 10:59:31;;;;;;;4.50;2.60;;;;;;;16.17;30.56;101743.84;4987058;28;20034;-79
2022/04/18 11:01:58;;;;;;;4.68;2.45;;;;;;;16.23;33.49;101741.88;4986690;28;20033;-80
2022/04/18 11:04:38;;;;;;;3.22;2.50;;;;;;;16.30;33.08;101739.91;4985022;28;20030;-80
2022/04/18 11:07:08;;;;;;;4.20;2.70;;;;;;;16.34;31.37;101738.03;4986523;28;20034;-80
2022/04/18 11:09:52;;;;;;;4.20;2.72;;;;;;;16.42;33.04;101738.59;4984851;28;20496;-80
2022/04/18 11:12:20;;;;;;;4.13;2.60;;;;;;;16.52;31.68;101737.34;4984010;28;20504;-80
2022/04/18 11:15:16;;;;;;;4.03;2.47;;;;;;;16.64;32.30;101732.56;4985046;28;20366;-80
2022/04/18 11:17:42;;;;;;;4.55;2.53;;;;;;;16.69;33.30;101728.00;4967843;28;20065;-79
2022/04/18 11:20:27;;;;;;;4.30;2.55;;;;;;;16.74;33.57;101720.78;4984698;28;20030;-79
2022/04/18 11:23:18;;;;;;;2.90;2.10;;;;;;;16.81;32.91;101719.66;4968656;28;20050;-79
2022/04/18 11:26:03;;;;;;;3.55;2.30;;;;;;;16.90;30.81;101722.84;4986312;28;20042;-79
2022/04/18 11:28:40;;;;;;;5.97;2.58;;;;;;;17.01;33.77;101718.06;4985438;28;20039;-80
2022/04/18 11:31:17;;;;;;;5.28;2.90;;;;;;;17.08;31.82;101716.88;4983217;28;20512;-80
2022/04/18 11:33:43;;;;;;;3.53;2.38;;;;;;;17.16;29.09;101708.72;4984475;28;20077;-80
2022/04/18 11:36:10;;;;;;;4.25;2.40;;;;;;;17.28;28.14;101704.72;4980534;28;20030;-80
2022/04/18 11:38:36;;;;;;;4.90;2.67;;;;;;;17.40;32.02;101711.28;4988289;28;20026;-80
2022/04/18 11:41:09;;;;;;;6.22;2.95;;;;;;;17.54;32.50;101708.09;4986194;28;20037;-80
2022/04/18 11:43:34;;;;;;;4.00;3.20;;;;;;;17.62;29.07;101700.72;4985830;28;20030;-80